Time;durP1;ratioP1;P1;durP2;ratioP2;P2;SDS_P1;SDS_P2;PMS_P1;PMS_P2;Temp;Humidity;BMP_temperature;BMP_pressure;BME280_temperature;BME280_humidity;BME280_pressure;Samples;Min_cycle;Max_cycle;Signal;HPM_P1;HPM_P2
2022/02/04 00:53:19;;;;;;;3.72;3.13;;;;;;;-1.90;100.00;92851.88;2076073;28;20813;-81
2022/02/04 00:54:37;;;;;;;5.68;3.70;;;;;;;-1.90;100.00;92857.09;2092855;28;20091;-82
2022/02/04 00:55:48;;;;;;;5.22;4.25;;;;;;;-1.93;100.00;92850.72;2086363;28;20409;-84
2022/02/04 01:26:34;;;;;;;4.72;3.25;;;;;;;-1.98;100.00;92871.16;2096032;27;20041;-82
2022/02/04 01:27:46;;;;;;;5.82;2.75;;;;;;;-1.91;100.00;92868.69;2070675;28;20598;-84
2022/02/04 01:30:50;;;;;;;3.55;3.17;;;;;;;-1.69;100.00;92872.50;2085893;27;20335;-84
2022/02/04 01:32:05;;;;;;;3.42;2.78;;;;;;;-1.65;100.00;92881.94;2072424;28;20053;-82
2022/02/04 01:33:17;;;;;;;3.85;2.97;;;;;;;-1.66;100.00;92877.06;2063899;28;20042;-83
2022/02/04 01:34:26;;;;;;;3.13;2.83;;;;;;;-1.60;100.00;92881.66;2074042;28;20053;-83
2022/02/04 01:35:41;;;;;;;3.65;3.20;;;;;;;-1.61;100.00;92885.41;2069359;28;20142;-84
2022/02/04 01:41:55;;;;;;;3.58;3.00;;;;;;;-1.11;100.00;92875.09;2082053;27;20048;-82
2022/02/04 01:43:04;;;;;;;3.80;3.30;;;;;;;-1.40;100.00;92876.44;2091822;28;20048;-82
2022/02/04 01:44:32;;;;;;;3.97;2.83;;;;;;;-1.40;100.00;92874.56;2050679;28;20482;-84
2022/02/04 01:45:37;;;;;;;4.30;2.75;;;;;;;-1.40;100.00;92879.06;2061844;28;20076;-82
2022/02/04 01:46:46;;;;;;;3.63;2.70;;;;;;;-1.35;100.00;92876.91;2057161;28;20517;-82
2022/02/04 01:50:56;;;;;;;3.97;3.00;;;;;;;-1.39;100.00;92875.34;2109605;28;20035;-85
2022/02/04 01:52:04;;;;;;;3.60;3.22;;;;;;;-1.36;100.00;92875.41;2088098;28;20041;-84
2022/02/04 01:53:30;;;;;;;4.90;3.13;;;;;;;-1.37;100.00;92883.59;2087252;28;20044;-81
2022/02/04 01:54:32;;;;;;;3.75;3.13;;;;;;;-1.17;100.00;92874.63;2062103;28;20157;-84
2022/02/04 01:55:33;;;;;;;3.92;3.00;;;;;;;-1.19;100.00;92878.69;2056084;28;20843;-83
2022/02/04 01:56:34;;;;;;;6.35;3.05;;;;;;;-1.21;100.00;92875.66;2095584;28;20044;-84
2022/02/04 01:57:35;;;;;;;4.05;3.40;;;;;;;-1.22;100.00;92874.91;2089536;28;20452;-82
2022/02/04 01:58:37;;;;;;;4.63;3.25;;;;;;;-1.14;100.00;92875.78;2075948;28;20171;-84
2022/02/04 01:59:38;;;;;;;3.97;3.10;;;;;;;-1.05;100.00;92879.72;2057943;28;20125;-83
2022/02/04 02:00:40;;;;;;;4.90;3.70;;;;;;;-1.08;100.00;92875.16;2044059;28;20063;-82
2022/02/04 02:01:41;;;;;;;3.67;3.38;;;;;;;-0.89;100.00;92873.59;2065419;28;20041;-83
2022/02/04 02:02:42;;;;;;;5.60;3.80;;;;;;;-0.79;100.00;92870.38;2067039;28;20116;-83
2022/02/04 02:03:43;;;;;;;6.07;3.85;;;;;;;-0.92;100.00;92872.44;2065089;28;20082;-83
2022/02/04 02:04:44;;;;;;;5.68;3.47;;;;;;;-0.97;100.00;92870.06;2080049;28;20061;-85
2022/02/04 02:07:48;;;;;;;4.40;3.50;;;;;;;-1.02;100.00;92868.50;2077019;28;20041;-82
2022/02/04 02:10:56;;;;;;;;;;;;;;;-0.93;100.00;92880.63;2110387;27;20536;-82
2022/02/04 02:12:02;;;;;;;19.95;11.50;;;;;;;-0.47;100.00;92876.16;2095759;28;19974;-83
2022/02/04 02:14:26;;;;;;;;;;;;;;;-0.62;100.00;92877.03;2101898;28;20032;-83
2022/02/04 02:48:41;;;;;;;;;;;;;;;1.39;100.00;92881.78;2111184;28;20039;-83
2022/02/04 03:02:55;;;;;;;15.77;11.38;;;;;;;1.03;100.00;92879.94;2121517;27;20059;-82
2022/02/04 03:03:58;;;;;;;15.00;11.30;;;;;;;1.06;100.00;92882.59;2110318;28;20072;-81
2022/02/04 03:05:01;;;;;;;14.60;11.50;;;;;;;1.23;100.00;92874.13;2097840;28;20409;-81
2022/02/04 03:06:03;;;;;;;14.52;10.80;;;;;;;1.35;100.00;92877.59;2103783;28;20457;-82
2022/02/04 03:07:04;;;;;;;15.77;11.18;;;;;;;1.13;100.00;92872.13;2093793;28;20037;-83
2022/02/04 03:08:05;;;;;;;17.52;11.30;;;;;;;1.50;100.00;92874.72;2100099;28;20068;-80
2022/02/04 03:09:06;;;;;;;15.23;11.45;;;;;;;1.32;100.00;92875.69;2102405;28;20047;-84
2022/02/04 03:10:07;;;;;;;13.07;11.18;;;;;;;1.18;100.00;92871.03;2101414;28;21754;-81
2022/02/04 03:11:08;;;;;;;13.93;10.50;;;;;;;1.19;100.00;92867.31;2100797;28;20131;-83
2022/02/04 03:12:09;;;;;;;14.32;11.30;;;;;;;1.08;100.00;92872.47;2109246;28;20111;-83
2022/02/04 03:13:10;;;;;;;16.80;11.43;;;;;;;0.98;100.00;92871.25;2098310;28;20385;-84
2022/02/04 03:14:11;;;;;;;16.08;11.40;;;;;;;1.03;100.00;92872.03;2111298;27;20039;-82
2022/02/04 03:15:12;;;;;;;15.95;11.63;;;;;;;0.95;100.00;92877.22;2098947;28;20052;-81
2022/02/04 03:16:17;;;;;;;14.20;10.82;;;;;;;0.87;100.00;92872.25;2090410;28;21746;-83
2022/02/04 03:17:18;;;;;;;12.90;10.57;;;;;;;0.82;100.00;92875.19;2102053;27;20059;-83
2022/02/04 03:18:23;;;;;;;12.73;10.35;;;;;;;0.95;100.00;92882.47;2101786;28;20490;-82
2022/02/04 03:19:26;;;;;;;15.57;10.27;;;;;;;0.80;100.00;92872.94;2097951;28;20032;-81
2022/02/04 03:20:27;;;;;;;14.90;10.52;;;;;;;0.96;100.00;92873.47;2094967;28;20043;-81
2022/02/04 03:22:29;;;;;;;12.52;10.25;;;;;;;0.85;100.00;92879.75;2105114;28;20043;-81
2022/02/04 03:23:33;;;;;;;12.68;9.60;;;;;;;0.84;100.00;92873.75;2095831;28;20102;-84
2022/02/04 03:24:34;;;;;;;18.15;10.40;;;;;;;0.97;100.00;92872.38;2100831;28;20036;-83
2022/02/04 03:25:40;;;;;;;13.45;10.15;;;;;;;0.91;100.00;92875.66;2105452;28;20035;-81
2022/02/04 03:28:51;;;;;;;13.00;10.02;;;;;;;0.79;100.00;92879.31;2112213;27;20039;-81
2022/02/04 03:34:55;;;;;;;11.10;9.07;;;;;;;0.70;100.00;92878.81;2100989;28;20060;-83
2022/02/04 03:35:57;;;;;;;11.77;9.23;;;;;;;0.62;100.00;92887.78;2123300;27;20352;-82
2022/02/04 03:36:58;;;;;;;11.25;9.20;;;;;;;0.51;100.00;92882.38;2112813;27;20518;-81
2022/02/04 03:37:59;;;;;;;12.95;9.48;;;;;;;0.40;100.00;92889.38;2098475;28;20028;-81
2022/02/04 03:39:00;;;;;;;10.68;9.05;;;;;;;0.46;100.00;92891.31;2100162;28;20059;-81
2022/02/04 03:43:03;;;;;;;12.02;9.23;;;;;;;0.37;100.00;92897.97;2114978;27;20051;-82
2022/02/04 03:44:04;;;;;;;12.00;9.30;;;;;;;0.37;100.00;92893.47;2104841;28;20413;-81
2022/02/04 03:45:06;;;;;;;11.43;8.63;;;;;;;0.43;100.00;92899.16;2108919;28;20134;-82
2022/02/04 03:46:07;;;;;;;10.50;8.32;;;;;;;0.47;100.00;92903.34;2102648;28;20106;-82
2022/02/04 03:47:08;;;;;;;11.15;9.20;;;;;;;0.40;100.00;92905.16;2084754;28;20127;-82
2022/02/04 03:48:09;;;;;;;9.77;8.65;;;;;;;0.34;100.00;92907.31;2093933;28;20031;-81
2022/02/04 03:49:10;;;;;;;9.98;8.45;;;;;;;0.32;100.00;92909.56;2093156;28;20116;-83
2022/02/04 03:50:12;;;;;;;11.98;9.52;;;;;;;0.35;100.00;92905.44;2080253;28;20041;-81
2022/02/04 03:51:13;;;;;;;9.52;8.30;;;;;;;0.41;100.00;92909.28;2088088;28;20040;-84
2022/02/04 03:52:14;;;;;;;11.02;8.27;;;;;;;0.49;100.00;92909.03;2086989;28;21993;-83
2022/02/04 03:53:16;;;;;;;11.40;8.80;;;;;;;0.39;100.00;92903.63;2088543;28;20167;-82
2022/02/04 03:54:17;;;;;;;9.95;7.72;;;;;;;0.40;100.00;92905.91;2095782;28;20040;-81
2022/02/04 03:55:29;;;;;;;9.65;8.05;;;;;;;0.60;100.00;92903.88;2094589;28;21825;-83
2022/02/04 03:56:30;;;;;;;9.35;7.55;;;;;;;0.54;100.00;92901.94;2099480;28;20047;-83
2022/02/04 03:57:31;;;;;;;10.75;7.97;;;;;;;0.45;100.00;92907.47;2092393;28;20032;-82
2022/02/04 03:58:36;;;;;;;8.70;7.57;;;;;;;0.44;100.00;92908.56;2097227;28;20036;-82
2022/02/04 03:59:37;;;;;;;10.02;7.68;;;;;;;0.61;100.00;92908.03;2104918;28;20144;-82
2022/02/04 04:00:48;;;;;;;9.88;7.85;;;;;;;0.54;100.00;92904.56;2099035;28;20510;-81
2022/02/04 04:04:53;;;;;;;9.13;5.88;;;;;;;0.36;100.00;92899.84;2117060;27;20043;-82
2022/02/04 04:05:54;;;;;;;7.70;6.05;;;;;;;0.32;100.00;92906.94;2089094;28;20043;-81
2022/02/04 04:10:09;;;;;;;8.10;6.47;;;;;;;0.27;100.00;92911.75;2105999;27;20039;-81
2022/02/04 04:11:27;;;;;;;8.35;6.25;;;;;;;0.38;100.00;92913.38;2090289;28;20055;-80
2022/02/04 04:12:39;;;;;;;7.57;6.40;;;;;;;0.28;100.00;92916.63;2090997;28;20491;-82
2022/02/04 04:13:49;;;;;;;6.40;5.70;;;;;;;0.24;100.00;92918.47;2085511;28;20033;-82
2022/02/04 04:14:53;;;;;;;;;;;;;;;0.25;100.00;92915.47;2091437;28;20115;-81
2022/02/04 04:18:52;;;;;;;7.03;5.85;;;;;;;0.16;100.00;92914.97;2109986;27;20052;-82
2022/02/04 04:19:53;;;;;;;7.03;5.88;;;;;;;0.19;100.00;92910.88;2094514;28;20143;-81
2022/02/04 04:24:03;;;;;;;7.70;6.68;;;;;;;0.39;100.00;92911.50;2117881;27;20039;-83
2022/02/04 04:25:21;;;;;;;8.77;6.63;;;;;;;0.58;100.00;92915.91;2081980;28;20087;-82
2022/02/04 04:26:45;;;;;;;;;;;;;;;;;;;;;
2022/02/04 04:30:02;;;;;;;8.18;7.15;;;;;;;0.85;100.00;92913.94;2106063;28;20044;-82
2022/02/04 04:31:18;;;;;;;10.00;7.63;;;;;;;0.68;100.00;92904.75;2093834;28;20115;-83
2022/02/04 04:32:27;;;;;;;8.77;6.82;;;;;;;0.73;100.00;92904.41;2078574;28;20068;-82
2022/02/04 04:33:41;;;;;;;8.70;7.15;;;;;;;0.76;100.00;92911.59;2088820;28;20032;-83
2022/02/04 04:37:01;;;;;;;8.57;6.90;;;;;;;0.86;100.00;92902.31;2119959;27;20055;-82
2022/02/04 04:38:22;;;;;;;9.15;6.68;;;;;;;0.82;100.00;92897.00;2095983;28;20095;-83
2022/02/04 04:40:41;;;;;;;6.97;6.28;;;;;;;0.95;100.00;92910.66;2121084;27;20019;-84
2022/02/04 05:29:33;;;;;;;11.23;7.68;;;;;;;0.75;100.00;92910.84;2104098;27;20056;-82
2022/02/04 05:30:34;;;;;;;7.97;7.18;;;;;;;0.69;100.00;92912.25;2095930;28;20121;-82
2022/02/04 05:31:35;;;;;;;9.68;7.97;;;;;;;0.68;100.00;92913.38;2083737;28;20090;-80
2022/02/04 05:32:36;;;;;;;9.07;8.13;;;;;;;0.69;100.00;92911.50;2087016;28;20051;-83
2022/02/04 05:33:37;;;;;;;9.60;6.93;;;;;;;0.71;100.00;92917.19;2076995;28;20118;-82
2022/02/04 05:34:39;;;;;;;8.50;7.60;;;;;;;0.69;100.00;92912.25;2100621;28;20039;-81
2022/02/04 05:35:40;;;;;;;8.25;7.35;;;;;;;0.68;100.00;92921.28;2094376;28;20142;-81
2022/02/04 05:36:44;;;;;;;8.27;7.18;;;;;;;0.65;100.00;92919.34;2092684;28;20037;-83
2022/02/04 05:37:48;;;;;;;9.30;7.75;;;;;;;0.73;100.00;92914.94;2091904;28;20040;-80
2022/02/04 05:38:52;;;;;;;10.73;8.13;;;;;;;0.72;100.00;92921.31;2092065;28;21000;-82
2022/02/04 05:40:53;;;;;;;8.77;7.85;;;;;;;1.01;100.00;92911.88;2099777;28;20160;-82
2022/02/04 05:41:54;;;;;;;9.02;7.38;;;;;;;1.21;100.00;92925.59;2085922;28;20053;-82
2022/02/04 05:43:02;;;;;;;9.05;7.10;;;;;;;1.18;100.00;92921.81;2099950;28;20072;-81
2022/02/04 05:44:08;;;;;;;9.48;8.48;;;;;;;0.96;100.00;92917.44;2087756;28;20024;-84
2022/02/04 05:45:19;;;;;;;16.98;9.25;;;;;;;0.88;100.00;92913.22;2089318;28;20055;-81
2022/02/04 05:46:26;;;;;;;10.07;8.18;;;;;;;0.85;100.00;92917.34;2101349;28;20036;-82
2022/02/04 05:47:28;;;;;;;9.63;8.50;;;;;;;0.94;100.00;92919.69;2108746;27;20121;-81
2022/02/04 05:48:32;;;;;;;8.70;7.90;;;;;;;1.05;100.00;92919.78;2088887;28;20037;-81
2022/02/04 05:49:35;;;;;;;9.05;6.68;;;;;;;0.98;100.00;92921.25;2082526;28;20045;-82
2022/02/04 05:58:04;;;;;;;7.53;6.72;;;;;;;0.88;100.00;92916.63;2103612;28;20422;-82
2022/02/04 06:00:27;;;;;;;6.85;6.15;;;;;;;1.15;100.00;92922.56;2088813;28;21100;-81
2022/02/04 06:01:48;;;;;;;9.27;7.68;;;;;;;1.18;100.00;92927.06;2091826;28;20459;-84
2022/02/04 06:10:20;;;;;;;10.32;8.43;;;;;;;0.91;100.00;92926.41;2099265;28;20452;-80
2022/02/04 06:23:12;;;;;;;13.18;10.02;;;;;;;1.04;100.00;92923.56;2093104;28;20165;-81
2022/02/04 06:24:13;;;;;;;12.98;10.00;;;;;;;0.94;100.00;92928.34;2088973;28;20237;-81
2022/02/04 06:25:14;;;;;;;9.50;8.50;;;;;;;0.99;100.00;92928.00;2075709;28;20057;-81
2022/02/04 06:26:15;;;;;;;12.85;7.35;;;;;;;1.02;100.00;92921.28;2071384;28;20117;-81
2022/02/04 06:27:19;;;;;;;8.50;6.68;;;;;;;1.04;100.00;92918.28;2068349;28;20090;-81
2022/02/04 06:28:20;;;;;;;8.07;6.60;;;;;;;1.05;100.00;92922.44;2077073;28;20046;-81
2022/02/04 06:29:23;;;;;;;8.20;6.68;;;;;;;1.08;100.00;92922.47;2085424;28;20048;-81
2022/02/04 06:30:24;;;;;;;8.68;7.72;;;;;;;1.03;100.00;92928.06;2089483;28;20032;-82
2022/02/04 06:31:25;;;;;;;8.00;6.70;;;;;;;0.99;100.00;92928.00;2080668;28;20069;-81
2022/02/04 06:32:27;;;;;;;7.85;7.05;;;;;;;0.92;100.00;92922.69;2077984;28;20077;-83
2022/02/04 06:33:28;;;;;;;7.65;6.50;;;;;;;0.98;100.00;92923.88;2084750;28;20044;-80
2022/02/04 06:34:29;;;;;;;7.25;6.32;;;;;;;0.97;100.00;92926.88;2087308;28;20131;-81
2022/02/04 06:35:35;;;;;;;9.40;6.10;;;;;;;0.97;100.00;92932.88;2077351;28;20065;-82
2022/02/04 06:36:36;;;;;;;7.55;5.75;;;;;;;0.96;100.00;92928.72;2090551;28;20032;-80
2022/02/04 06:37:37;;;;;;;7.60;5.90;;;;;;;0.97;100.00;92929.50;2075436;28;20067;-82
2022/02/04 06:38:38;;;;;;;8.77;5.97;;;;;;;0.91;100.00;92929.03;2083514;28;20071;-80
2022/02/04 06:39:40;;;;;;;6.13;5.53;;;;;;;0.89;100.00;92927.91;2075744;28;20680;-80
2022/02/04 06:40:41;;;;;;;7.80;6.65;;;;;;;0.88;100.00;92926.38;2072993;28;20087;-81
2022/02/04 06:41:42;;;;;;;6.65;5.70;;;;;;;0.99;100.00;92933.28;2082838;28;20486;-81
2022/02/04 06:42:43;;;;;;;7.47;6.60;;;;;;;0.98;100.00;92925.75;2083233;28;20596;-81
2022/02/04 06:43:44;;;;;;;7.50;6.70;;;;;;;0.95;100.00;92929.84;2090104;28;20040;-81
2022/02/04 06:44:45;;;;;;;8.55;7.75;;;;;;;0.90;100.00;92927.53;2084136;28;20044;-82
2022/02/04 06:45:46;;;;;;;12.05;8.50;;;;;;;0.88;100.00;92926.38;2087802;28;20565;-81
2022/02/04 06:46:48;;;;;;;8.88;7.93;;;;;;;0.91;100.00;92930.94;2083902;28;20132;-81
2022/02/04 06:47:49;;;;;;;8.13;7.30;;;;;;;0.93;100.00;92929.47;2084922;28;20135;-81
2022/02/04 06:48:50;;;;;;;10.32;8.15;;;;;;;0.92;100.00;92929.81;2089667;28;20040;-82
2022/02/04 06:57:54;;;;;;;5.78;4.82;;;;;;;1.08;100.00;92940.13;2104990;27;20044;-82
2022/02/04 06:58:55;;;;;;;7.32;5.25;;;;;;;1.00;100.00;92932.16;2097047;28;20055;-80
2022/02/04 06:59:58;;;;;;;6.90;5.50;;;;;;;0.89;100.00;92939.19;2091663;28;20098;-81
2022/02/04 07:00:59;;;;;;;6.45;5.85;;;;;;;0.95;100.00;92937.75;2091258;28;20036;-80
2022/02/04 07:02:00;;;;;;;5.95;5.35;;;;;;;0.90;100.00;92934.69;2081382;28;20052;-81
2022/02/04 07:03:01;;;;;;;6.45;5.70;;;;;;;1.06;100.00;92937.88;2079547;28;20613;-81
2022/02/04 07:04:05;;;;;;;5.95;4.97;;;;;;;1.03;100.00;92940.47;2087517;28;20028;-81
2022/02/04 07:05:11;;;;;;;5.93;4.93;;;;;;;1.11;100.00;92932.28;2092596;28;20093;-81
2022/02/04 07:06:15;;;;;;;6.53;5.20;;;;;;;1.04;100.00;92936.72;2092740;28;20033;-80
2022/02/04 07:07:18;;;;;;;5.80;5.05;;;;;;;0.94;100.00;92938.09;2080704;28;20024;-81
2022/02/04 07:08:25;;;;;;;6.07;5.47;;;;;;;0.89;100.00;92936.56;2087710;28;20052;-81
2022/02/04 07:09:41;;;;;;;7.03;5.50;;;;;;;1.00;100.00;92945.31;2084103;28;20149;-81
2022/02/04 07:20:43;;;;;;;7.30;5.43;;;;;;;0.84;100.00;92957.94;2107740;28;20051;-82
2022/02/04 07:21:44;;;;;;;6.57;5.82;;;;;;;0.86;100.00;92944.41;2087404;28;20041;-82
2022/02/04 07:22:45;;;;;;;11.05;7.22;;;;;;;0.83;100.00;92950.38;2101515;28;20056;-81
2022/02/04 07:23:46;;;;;;;7.78;6.45;;;;;;;0.88;100.00;92948.19;2094428;28;20124;-80
2022/02/04 07:24:50;;;;;;;8.00;7.00;;;;;;;0.86;100.00;92947.03;2093205;28;20036;-81
2022/02/04 07:33:01;;;;;;;6.88;5.32;;;;;;;1.28;100.00;92951.25;2111454;28;20077;-81
2022/02/04 07:34:34;;;;;;;7.45;5.22;;;;;;;1.17;100.00;92945.88;2090329;28;20200;-82
2022/02/04 07:41:40;;;;;;;7.38;5.38;;;;;;;1.10;100.00;92938.66;2111006;27;20849;-81
2022/02/04 07:42:41;;;;;;;6.57;5.22;;;;;;;1.14;100.00;92942.09;2103724;28;20051;-81
2022/02/04 07:43:43;;;;;;;7.47;4.95;;;;;;;1.20;100.00;92938.03;2107274;28;20080;-81
2022/02/04 07:44:44;;;;;;;6.45;5.03;;;;;;;1.36;100.00;92942.28;2095646;28;20131;-81
2022/02/04 07:45:47;;;;;;;6.88;5.60;;;;;;;1.30;100.00;92944.50;2087780;28;20098;-81
2022/02/04 07:46:48;;;;;;;6.05;4.85;;;;;;;1.48;100.00;92942.03;2085277;28;20045;-81
2022/02/04 07:47:49;;;;;;;5.15;4.57;;;;;;;1.55;100.00;92936.09;2093952;28;20048;-80
2022/02/04 07:48:50;;;;;;;5.82;5.00;;;;;;;1.50;100.00;92937.94;2095309;28;20036;-82
2022/02/04 07:55:52;;;;;;;8.02;6.18;;;;;;;1.48;100.00;92937.53;2118547;27;20986;-81
2022/02/04 07:57:53;;;;;;;6.80;5.15;;;;;;;1.47;100.00;92933.38;2102368;28;20047;-80
2022/02/04 07:58:55;;;;;;;9.07;5.68;;;;;;;1.48;100.00;92937.53;2090706;28;20036;-80
2022/02/04 08:00:02;;;;;;;6.53;5.35;;;;;;;1.41;100.00;92932.22;2074884;28;20076;-81
2022/02/04 08:01:04;;;;;;;6.63;4.90;;;;;;;1.50;100.00;92935.31;2065559;28;20074;-82
2022/02/04 08:02:05;;;;;;;5.88;4.90;;;;;;;1.47;100.00;92937.91;2084755;28;20128;-82
2022/02/04 08:03:31;;;;;;;7.22;6.18;;;;;;;1.55;100.00;92938.72;2098521;28;20028;-80
2022/02/04 08:04:34;;;;;;;7.65;5.70;;;;;;;1.55;100.00;92936.84;2109509;28;20485;-82
2022/02/04 08:05:35;;;;;;;6.57;4.70;;;;;;;1.56;100.00;92938.34;2093431;28;20081;-80
2022/02/04 08:06:42;;;;;;;5.47;4.93;;;;;;;1.62;100.00;92939.53;2085530;28;20068;-82
2022/02/04 08:14:41;;;;;;;5.43;3.45;;;;;;;1.91;100.00;92929.25;2094088;27;20119;-81
2022/02/04 08:33:58;;;;;;;2.97;2.67;;;;;;;2.01;100.00;92931.94;2099170;28;20051;-81
2022/02/04 08:58:58;;;;;;;2.10;1.90;;;;;;;2.54;100.00;92943.97;2107922;28;20042;-81
2022/02/04 09:01:24;;;;;;;1.77;1.55;;;;;;;2.68;100.00;92940.66;2092920;28;20034;-82
2022/02/04 09:02:41;;;;;;;4.05;3.10;;;;;;;2.71;100.00;92943.28;2098807;28;20056;-81
2022/02/04 09:04:02;;;;;;;1.83;1.73;;;;;;;2.50;100.00;92937.91;2085920;28;20041;-81
2022/02/04 09:08:07;;;;;;;2.53;1.83;;;;;;;2.21;100.00;92931.72;2109985;28;20055;-81
2022/02/04 09:09:27;;;;;;;1.50;1.30;;;;;;;2.30;100.00;92940.06;2092012;28;20055;-81
2022/02/04 09:10:29;;;;;;;2.10;1.40;;;;;;;2.34;100.00;92937.44;2085778;28;20040;-81
2022/02/04 09:19:04;;;;;;;1.23;1.13;;;;;;;2.29;100.00;92938.56;2105962;27;20975;-82
2022/02/04 09:20:11;;;;;;;1.85;1.20;;;;;;;2.27;100.00;92933.63;2089757;28;20045;-80
2022/02/04 09:21:25;;;;;;;1.80;1.20;;;;;;;2.35;100.00;92931.81;2096263;28;20162;-82
2022/02/04 09:22:41;;;;;;;2.60;1.00;;;;;;;2.35;100.00;92929.16;2094436;28;20790;-81
2022/02/04 09:23:43;;;;;;;1.20;1.10;;;;;;;2.25;100.00;92929.88;2092613;28;20045;-81
2022/02/04 09:24:45;;;;;;;1.08;1.00;;;;;;;2.24;100.00;92931.00;2084993;28;20099;-81
2022/02/04 09:25:46;;;;;;;1.38;1.15;;;;;;;2.33;100.00;92923.50;2063555;28;20066;-81
2022/02/04 09:26:47;;;;;;;1.30;1.17;;;;;;;2.39;100.00;92932.56;2094767;28;20073;-82
2022/02/04 09:27:49;;;;;;;1.48;1.15;;;;;;;2.43;100.00;92922.06;2097372;28;20437;-83
2022/02/04 09:28:50;;;;;;;1.92;1.83;;;;;;;2.48;100.00;92926.97;2098193;28;20048;-82
2022/02/04 09:35:52;;;;;;;1.85;0.90;;;;;;;2.41;100.00;92937.47;2107736;28;20056;-81
2022/02/04 09:37:54;;;;;;;1.15;1.00;;;;;;;2.46;100.00;92932.63;2099239;28;20058;-83
2022/02/04 09:38:55;;;;;;;1.70;1.48;;;;;;;2.51;100.00;92932.28;2095881;28;20063;-81
2022/02/04 09:39:57;;;;;;;2.05;1.65;;;;;;;2.53;100.00;92932.66;2102954;28;20016;-81
2022/02/04 09:40:58;;;;;;;1.90;1.67;;;;;;;2.53;100.00;92921.34;2095873;28;20039;-81
2022/02/04 09:41:59;;;;;;;3.15;2.53;;;;;;;2.52;100.00;92925.88;2085271;28;20060;-81
2022/02/04 09:43:01;;;;;;;3.22;2.92;;;;;;;2.52;100.00;92925.13;2098036;28;20520;-80
2022/02/04 09:44:03;;;;;;;2.10;1.60;;;;;;;2.50;100.00;92928.13;2083356;28;20029;-83
2022/02/04 09:45:06;;;;;;;2.75;2.42;;;;;;;2.48;100.00;92921.69;2076776;28;20037;-81
2022/02/04 09:46:07;;;;;;;2.13;1.95;;;;;;;2.75;100.00;92922.22;2088555;28;20152;-81
2022/02/04 09:47:08;;;;;;;1.95;1.85;;;;;;;2.81;100.00;92933.16;2083782;28;20068;-83
2022/02/04 09:48:11;;;;;;;2.55;1.50;;;;;;;2.68;100.00;92928.22;2090587;28;20035;-81
2022/02/04 09:49:25;;;;;;;1.90;1.80;;;;;;;2.64;100.00;92935.38;2095923;28;20032;-81
2022/02/04 09:50:29;;;;;;;2.15;1.95;;;;;;;2.81;100.00;92927.88;2099680;28;20400;-81
2022/02/04 09:51:48;;;;;;;2.13;1.92;;;;;;;2.53;100.00;92930.00;2096152;28;20048;-82
2022/02/04 10:14:50;;;;;;;1.38;1.00;;;;;;;2.56;100.00;92901.41;2097778;27;20047;-80
2022/02/04 10:21:59;;;;;;;1.52;0.90;;;;;;;2.99;100.00;92911.00;2116647;27;20043;-81
2022/02/04 10:23:01;;;;;;;0.98;0.88;;;;;;;2.89;100.00;92924.16;2100522;28;20500;-82
2022/02/04 10:24:03;;;;;;;1.10;0.90;;;;;;;2.88;100.00;92927.91;2104486;28;20023;-81
2022/02/04 10:25:08;;;;;;;1.48;0.90;;;;;;;2.81;100.00;92925.25;2096373;28;20558;-81
2022/02/04 10:26:11;;;;;;;1.00;0.85;;;;;;;2.80;100.00;92923.72;2089105;28;20061;-80
2022/02/04 10:27:17;;;;;;;0.93;0.73;;;;;;;2.71;100.00;92913.50;2072871;28;20049;-80
2022/02/04 10:28:27;;;;;;;0.88;0.88;;;;;;;2.62;100.00;92913.84;2097856;28;20066;-82
2022/02/04 10:29:29;;;;;;;1.58;0.90;;;;;;;2.91;100.00;92912.09;2090404;28;20466;-80
2022/02/04 10:30:32;;;;;;;0.70;0.70;;;;;;;2.77;100.00;92917.31;2087595;28;20055;-80
2022/02/04 10:31:33;;;;;;;1.48;1.13;;;;;;;2.78;100.00;92916.94;2089521;28;20044;-82
2022/02/04 10:32:42;;;;;;;1.10;1.00;;;;;;;2.63;100.00;92915.34;2089771;28;20143;-81
2022/02/04 10:35:51;;;;;;;1.15;1.05;;;;;;;2.47;100.00;92907.00;2112221;27;20043;-80
2022/02/04 10:39:30;;;;;;;1.10;0.90;;;;;;;2.77;100.00;92904.13;2115331;27;20035;-80
2022/02/04 10:40:44;;;;;;;1.67;1.00;;;;;;;2.59;100.00;92906.69;2114079;27;20427;-82
2022/02/04 10:47:01;;;;;;;1.55;1.15;;;;;;;2.91;100.00;92901.53;2107680;27;20044;-81
2022/02/04 10:58:07;;;;;;;1.30;1.20;;;;;;;3.23;100.00;92877.84;2110468;27;20047;-81
2022/02/04 11:00:53;;;;;;;1.58;1.48;;;;;;;3.12;100.00;92871.81;2091705;28;20163;-81
2022/02/04 11:08:30;;;;;;;17.42;8.57;;;;;;;2.89;100.00;92880.03;2102377;28;20121;-82
2022/02/04 11:34:39;;;;;;;3.08;2.35;;;;;;;3.21;100.00;92868.81;2105291;28;20056;-81
2022/02/04 11:35:43;;;;;;;1.77;1.42;;;;;;;3.20;100.00;92862.00;2100741;28;20319;-81
2022/02/04 11:48:16;;;;;;;1.73;1.58;;;;;;;2.98;100.00;92848.75;2110477;27;20044;-81
2022/02/04 11:58:03;;;;;;;2.30;1.55;;;;;;;3.17;100.00;92849.56;2109681;27;20112;-79
2022/02/04 11:59:04;;;;;;;1.33;1.23;;;;;;;3.33;100.00;92849.19;2107439;27;20456;-82
2022/02/04 12:00:18;;;;;;;1.45;1.20;;;;;;;3.00;100.00;92849.16;2109459;28;20066;-82
2022/02/04 12:01:19;;;;;;;1.90;1.20;;;;;;;3.20;100.00;92843.50;2100274;28;20040;-82
2022/02/04 12:03:31;;;;;;;2.45;1.60;;;;;;;2.97;100.00;92855.16;2096957;28;20033;-81
2022/02/04 12:04:32;;;;;;;3.92;3.10;;;;;;;3.10;100.00;92842.38;2102387;27;20044;-80
2022/02/04 12:05:34;;;;;;;4.70;3.40;;;;;;;3.08;100.00;92838.59;2093920;28;20893;-81
2022/02/04 12:06:37;;;;;;;3.78;2.80;;;;;;;2.91;100.00;92835.53;2084625;28;20608;-81
2022/02/04 12:07:44;;;;;;;3.53;2.42;;;;;;;2.78;100.00;92839.66;2091947;28;20037;-80
2022/02/04 12:08:45;;;;;;;3.63;1.73;;;;;;;2.71;100.00;92837.00;2094379;28;20056;-81
2022/02/04 12:09:46;;;;;;;3.70;2.50;;;;;;;2.71;100.00;92829.06;2084290;28;20104;-81
2022/02/04 12:10:50;;;;;;;2.40;1.83;;;;;;;2.84;100.00;92830.25;2069530;28;20120;-81
2022/02/04 12:17:53;;;;;;;3.65;2.88;;;;;;;3.12;100.00;92826.16;2107457;28;20051;-80
2022/02/04 12:19:12;;;;;;;6.95;2.40;;;;;;;3.48;100.00;92813.72;2108792;27;20035;-82
2022/02/04 12:20:16;;;;;;;1.20;1.10;;;;;;;3.65;100.00;92812.97;2098120;28;20036;-81
2022/02/04 12:21:20;;;;;;;1.60;1.08;;;;;;;3.50;100.00;92822.03;2083122;28;20048;-80
2022/02/04 12:22:50;;;;;;;2.25;1.00;;;;;;;3.32;100.00;92822.03;2086099;28;20214;-80
2022/02/04 12:31:53;;;;;;;0.85;0.82;;;;;;;3.38;100.00;92825.81;2110713;27;20074;-80
2022/02/04 12:32:55;;;;;;;0.80;0.80;;;;;;;3.44;100.00;92828.81;2099137;28;20038;-80
2022/02/04 12:33:58;;;;;;;1.08;1.00;;;;;;;3.28;100.00;92822.00;2086756;28;20056;-81
2022/02/04 12:34:59;;;;;;;1.10;0.90;;;;;;;3.26;100.00;92821.66;2079229;28;20021;-82
2022/02/04 12:36:01;;;;;;;1.55;1.17;;;;;;;3.32;100.00;92816.00;2095118;28;20813;-81
2022/02/04 12:37:04;;;;;;;0.95;0.82;;;;;;;3.35;100.00;92812.59;2087423;28;20028;-80
2022/02/04 12:38:05;;;;;;;0.90;0.90;;;;;;;3.38;100.00;92819.75;2096133;28;20143;-81
2022/02/04 12:39:10;;;;;;;1.95;1.30;;;;;;;3.22;100.00;92812.22;2080144;28;20417;-81
2022/02/04 12:40:11;;;;;;;2.15;0.93;;;;;;;3.18;100.00;92825.41;2085454;28;20746;-80
2022/02/04 12:43:55;;;;;;;1.88;1.23;;;;;;;2.84;100.00;92819.69;2111038;27;20031;-82
2022/02/04 12:44:58;;;;;;;0.80;0.80;;;;;;;2.93;100.00;92811.41;2107054;27;20148;-80
2022/02/04 12:45:59;;;;;;;0.93;0.80;;;;;;;3.19;100.00;92811.06;2090993;28;20652;-80
2022/02/04 12:47:07;;;;;;;0.93;0.93;;;;;;;3.08;100.00;92809.56;2075102;28;20704;-80
2022/02/04 12:48:08;;;;;;;0.90;0.70;;;;;;;3.19;100.00;92802.38;2093491;28;20044;-82
2022/02/04 12:49:13;;;;;;;0.90;0.85;;;;;;;3.16;100.00;92818.97;2087870;28;20060;-80
2022/02/04 12:50:14;;;;;;;0.80;0.80;;;;;;;3.02;100.00;92799.34;2102811;27;20031;-81
2022/02/04 12:51:29;;;;;;;1.42;0.80;;;;;;;3.07;100.00;92808.78;2099888;28;20036;-81
2022/02/04 12:52:41;;;;;;;1.55;0.77;;;;;;;3.18;100.00;92796.34;2092593;28;20045;-80
2022/02/04 12:53:47;;;;;;;0.77;0.77;;;;;;;2.96;100.00;92808.03;2094285;28;20157;-79
2022/02/04 12:58:41;;;;;;;1.63;0.75;;;;;;;3.22;100.00;92785.81;2105925;28;20053;-82
2022/02/04 12:59:55;;;;;;;0.85;0.85;;;;;;;3.49;100.00;92786.94;2075754;28;20718;-80
2022/02/04 13:03:08;;;;;;;0.63;0.63;;;;;;;3.12;100.00;92784.66;2106084;28;20047;-81
2022/02/04 13:11:52;;;;;;;0.52;0.52;;;;;;;3.21;100.00;92787.69;2102869;28;20063;-81
2022/02/04 13:12:58;;;;;;;0.60;0.60;;;;;;;3.23;100.00;92782.03;2093873;28;20035;-82